createdAt,value
2018-03-20T00:01:31.148Z,4.41
2018-03-20T00:07:21.714Z,4.72
2018-03-20T00:13:12.340Z,4.53
2018-03-20T00:19:02.947Z,5.25
2018-03-20T00:24:53.572Z,4.37
2018-03-20T00:30:44.188Z,4.46
2018-03-20T00:36:34.772Z,4.68
2018-03-20T00:42:25.370Z,4.6
2018-03-20T00:48:15.929Z,4.74
2018-03-20T00:54:06.557Z,4.51
2018-03-20T00:59:57.121Z,5.84
2018-03-20T01:05:47.745Z,4.79
2018-03-20T01:11:38.380Z,5.01
2018-03-20T01:17:28.961Z,4.74
2018-03-20T01:23:19.540Z,4.12
2018-03-20T01:29:10.167Z,5.32
2018-03-20T01:35:00.829Z,5.45
2018-03-20T01:40:51.354Z,4.75
2018-03-20T01:46:41.961Z,4.46
2018-03-20T01:52:32.517Z,3.73
2018-03-20T01:58:23.098Z,4.44
2018-03-20T02:04:13.687Z,5.06
2018-03-20T02:10:04.293Z,5.85
2018-03-20T02:15:54.858Z,5.04
2018-03-20T02:21:45.488Z,4.59
2018-03-20T02:27:36.051Z,4.2
2018-03-20T02:33:26.643Z,4.11
2018-03-20T02:39:17.374Z,4.6
2018-03-20T02:45:07.901Z,4.62
2018-03-20T02:50:58.490Z,4.38
2018-03-20T02:56:49.079Z,5.02
2018-03-20T03:02:39.748Z,4.25
2018-03-20T03:08:30.430Z,4.59
2018-03-20T03:14:21.019Z,4.12
2018-03-20T03:20:11.609Z,4.87
2018-03-20T03:26:02.170Z,4.11
2018-03-20T03:31:52.808Z,4.42
2018-03-20T03:37:43.374Z,4.01
2018-03-20T03:43:33.936Z,4.34
2018-03-20T03:49:24.616Z,3.88
2018-03-20T03:55:15.238Z,4.28
2018-03-20T04:01:05.868Z,3.79
2018-03-20T04:06:56.563Z,5.01
2018-03-20T04:12:47.112Z,4.2
2018-03-20T04:18:37.831Z,4.4
2018-03-20T04:24:28.459Z,3.95
2018-03-20T04:30:19.206Z,3.6
2018-03-20T04:36:09.822Z,4.05
2018-03-20T04:42:00.472Z,4.05
2018-03-20T04:47:51.166Z,4.37
2018-03-20T04:53:41.838Z,5.09
2018-03-20T04:59:32.494Z,4.6
2018-03-20T05:05:23.246Z,4.8
2018-03-20T05:11:13.893Z,4.44
2018-03-20T05:17:04.555Z,4.95
2018-03-20T05:22:55.252Z,4.97
2018-03-20T05:28:45.940Z,4.75
2018-03-20T05:34:36.602Z,5.04
2018-03-20T05:40:27.203Z,4.84
2018-03-20T05:46:17.909Z,4.75
2018-03-20T05:52:08.558Z,4.37
2018-03-20T05:57:59.270Z,4.64
2018-03-20T06:03:49.914Z,4.89
2018-03-20T06:09:40.590Z,4.83
2018-03-20T06:15:31.309Z,4.79
2018-03-20T06:21:21.959Z,4.61
2018-03-20T06:27:12.538Z,5.64
2018-03-20T06:33:03.238Z,5.66
2018-03-20T06:38:53.779Z,5.18
2018-03-20T06:44:44.530Z,4.89
2018-03-20T06:50:35.058Z,5.16
2018-03-20T06:56:25.650Z,4.5
2018-03-20T07:02:16.237Z,4.05
2018-03-20T07:08:06.831Z,4.04
2018-03-20T07:13:57.387Z,3.65
2018-03-20T07:19:48.013Z,3.22
2018-03-20T07:25:38.619Z,3.4
2018-03-20T07:31:29.192Z,3.29
2018-03-20T07:37:19.792Z,2.62
2018-03-20T07:43:10.365Z,2.06
2018-03-20T07:49:00.976Z,3.38
2018-03-20T07:54:51.573Z,2.28
2018-03-20T08:00:42.174Z,2.8
2018-03-20T08:06:32.798Z,1.8
2018-03-20T08:12:23.439Z,1.67
2018-03-20T08:18:14.025Z,1.29
2018-03-20T08:24:04.611Z,1.79
2018-03-20T08:29:55.210Z,1.21
2018-03-20T08:35:45.872Z,1.44
2018-03-20T08:41:36.490Z,1.08
2018-03-20T08:47:27.090Z,1.09
2018-03-20T08:53:17.719Z,0.77
2018-03-20T08:59:08.329Z,1.21
2018-03-20T09:04:58.960Z,1.31
2018-03-20T09:10:49.634Z,1.43
2018-03-20T09:16:40.142Z,1.31
2018-03-20T09:22:30.801Z,1.21
2018-03-20T09:28:21.390Z,1.23
2018-03-20T09:34:12.042Z,1.5
2018-03-20T09:40:02.715Z,1.08
2018-03-20T09:45:53.296Z,1.46
2018-03-20T09:51:43.960Z,1.21
2018-03-20T09:57:34.574Z,1.16
2018-03-20T10:03:25.185Z,1.4
2018-03-20T10:09:15.840Z,1.86
2018-03-20T10:15:06.468Z,2.07
2018-03-20T10:20:57.096Z,1.69
2018-03-20T10:26:47.797Z,1.52
2018-03-20T10:32:38.368Z,1.78
2018-03-20T10:38:29.040Z,1.48
2018-03-20T10:44:19.650Z,1.66
2018-03-20T10:50:10.317Z,1.24
2018-03-20T10:56:00.939Z,1.65
2018-03-20T11:01:51.615Z,1.14
2018-03-20T11:07:42.274Z,1.74
2018-03-20T11:13:32.866Z,1.17
2018-03-20T11:19:23.539Z,1.07
2018-03-20T11:25:14.221Z,1.4
2018-03-20T11:31:04.838Z,1.48
2018-03-20T11:36:55.485Z,0.96
2018-03-20T11:42:46.096Z,1.12
2018-03-20T11:48:36.813Z,0.84
2018-03-20T11:54:27.415Z,0.97
2018-03-20T12:00:18.090Z,1.63
2018-03-20T12:06:08.815Z,1.17
2018-03-20T12:11:59.406Z,1.14
2018-03-20T12:17:50.102Z,1.7
2018-03-20T12:23:40.729Z,1.19
2018-03-20T12:29:31.360Z,1.61
2018-03-20T12:35:22.019Z,1.83
2018-03-20T12:41:12.660Z,1.66
2018-03-20T12:47:03.338Z,2.08
2018-03-20T12:52:54.022Z,1.86
2018-03-20T12:58:44.630Z,2.18
2018-03-20T13:04:35.367Z,2.21
2018-03-20T13:10:25.936Z,2.44
2018-03-20T13:16:16.609Z,2.94
2018-03-20T13:22:07.297Z,2.35
2018-03-20T13:27:57.978Z,2.97
2018-03-20T13:33:48.695Z,3.04
2018-03-20T13:39:39.229Z,2.45
2018-03-20T13:45:29.871Z,2.82
2018-03-20T13:51:20.651Z,2.45
2018-03-20T13:57:11.163Z,2.98
2018-03-20T14:03:01.961Z,2.71
2018-03-20T14:08:52.476Z,3.09
2018-03-20T14:14:43.163Z,2.99
2018-03-20T14:20:33.772Z,2.54
2018-03-20T14:26:24.452Z,2.28
2018-03-20T14:32:15.072Z,2.08
2018-03-20T14:38:05.674Z,2.19
2018-03-20T14:43:56.394Z,2.59
2018-03-20T14:49:47.037Z,1.29
2018-03-20T14:55:37.589Z,1.36
2018-03-20T15:01:28.237Z,1.2
2018-03-20T15:07:18.855Z,1.48
2018-03-20T15:13:09.483Z,1.21
2018-03-20T15:19:00.183Z,1.5
2018-03-20T15:24:50.731Z,1.77
2018-03-20T15:30:41.350Z,1.65
2018-03-20T15:36:31.988Z,1.45
2018-03-20T15:42:22.623Z,2.03
2018-03-20T15:48:13.237Z,2.08
2018-03-20T15:54:03.880Z,3.1
2018-03-20T15:59:54.534Z,2.49
2018-03-20T16:05:45.147Z,1.87
2018-03-20T16:11:35.766Z,2.49
2018-03-20T16:17:26.402Z,3.09
2018-03-20T16:23:16.996Z,2.59
2018-03-20T16:29:07.627Z,3.93
2018-03-20T16:34:58.285Z,2.42
2018-03-20T16:40:48.896Z,3.08
2018-03-20T16:46:39.622Z,3.98
2018-03-20T16:52:30.130Z,3.99
2018-03-20T16:58:20.759Z,4.53
2018-03-20T17:04:11.394Z,4.54
2018-03-20T17:10:01.998Z,5.27
2018-03-20T17:15:52.642Z,2.86
2018-03-20T17:21:43.204Z,3.08
2018-03-20T17:27:33.844Z,3.68
2018-03-20T17:33:24.468Z,3.06
2018-03-20T17:39:15.265Z,3.25
2018-03-20T17:45:05.740Z,3.05
2018-03-20T17:50:56.341Z,2.93
2018-03-20T17:56:46.973Z,2.74
2018-03-20T18:02:37.590Z,2.82
2018-03-20T18:08:28.226Z,2.92
2018-03-20T18:14:18.851Z,3.16
2018-03-20T18:20:09.450Z,3.46
2018-03-20T18:26:00.064Z,3.33
2018-03-20T18:31:50.684Z,2.79
2018-03-20T18:37:41.295Z,2.85
2018-03-20T18:43:31.911Z,2.36
2018-03-20T18:49:22.508Z,3.51
2018-03-20T18:55:13.169Z,3.71
2018-03-20T19:01:03.874Z,3.26
2018-03-20T19:06:54.376Z,3.51
2018-03-20T19:12:44.993Z,2.69
2018-03-20T19:18:35.641Z,3.57
2018-03-20T19:24:26.223Z,3.97
2018-03-20T19:30:16.822Z,4.19
2018-03-20T19:36:07.504Z,3.77
2018-03-20T19:41:58.038Z,2.79
2018-03-20T19:47:48.625Z,2.89
2018-03-20T19:53:39.236Z,2.03
2018-03-20T19:59:29.861Z,2.34
2018-03-20T20:05:20.478Z,1.79
2018-03-20T20:11:11.091Z,1.43
2018-03-20T20:17:01.729Z,1.41
2018-03-20T20:22:52.381Z,1.25
2018-03-20T20:28:42.945Z,1.13
2018-03-20T20:34:33.635Z,1.16
2018-03-20T20:40:24.164Z,1
2018-03-20T20:46:14.747Z,1.08
2018-03-20T20:52:05.404Z,0.96
2018-03-20T20:57:55.977Z,0.72
2018-03-20T21:03:46.577Z,0.77
2018-03-20T21:09:37.225Z,0.64
2018-03-20T21:15:27.807Z,0.62
2018-03-20T21:21:18.407Z,0.82
2018-03-20T21:27:08.987Z,0.73
2018-03-20T21:32:59.625Z,0.51
2018-03-20T21:38:50.270Z,0.64
2018-03-20T21:44:40.846Z,0.78
2018-03-20T21:50:31.459Z,0.64
2018-03-20T21:56:22.070Z,0.71
2018-03-20T22:02:12.649Z,0.5
2018-03-20T22:08:03.274Z,0.55
2018-03-20T22:13:53.939Z,0.55
2018-03-20T22:19:44.500Z,0.61
2018-03-20T22:25:35.133Z,0.63
2018-03-20T22:31:25.751Z,0.65
2018-03-20T22:37:16.307Z,1.31
2018-03-20T22:43:06.912Z,0.78
2018-03-20T22:48:57.603Z,0.91
2018-03-20T22:54:48.219Z,0.86
2018-03-20T23:00:38.772Z,0.88
2018-03-20T23:06:29.409Z,0.73
2018-03-20T23:12:20.046Z,0.81
2018-03-20T23:18:10.611Z,0.75
2018-03-20T23:24:01.175Z,0.63
2018-03-20T23:29:51.856Z,0.5
2018-03-20T23:35:42.480Z,0.43
2018-03-20T23:41:33.041Z,0.65
2018-03-20T23:47:23.679Z,0.62
2018-03-20T23:53:14.314Z,0.64
2018-03-20T23:59:04.872Z,0.66
